Time;durP1;ratioP1;P1;durP2;ratioP2;P2;SDS_P1;SDS_P2;PMS_P1;PMS_P2;Temp;Humidity;BMP_temperature;BMP_pressure;BME280_temperature;BME280_humidity;BME280_pressure;Samples;Min_cycle;Max_cycle;Signal;HPM_P1;HPM_P2
2022/09/24 00:00:10;;;;;;;;;10.33;10.33;;;;;;;;5005152;28;9276;-82
2022/09/24 00:02:37;;;;;;;;;13.00;10.33;;;;;;;;5005598;28;9101;-80
2022/09/24 00:05:05;;;;;;;;;11.67;11.67;;;;;;;;5005784;28;9221;-80
2022/09/24 00:07:33;;;;;;;;;10.33;10.33;;;;;;;;5006091;28;9216;-79
2022/09/24 00:10:01;;;;;;;;;10.00;10.00;;;;;;;;5003683;28;9948;-78
2022/09/24 00:12:28;;;;;;;;;17.67;14.67;;;;;;;;5005133;28;9118;-82
2022/09/24 00:14:56;;;;;;;;;9.67;9.33;;;;;;;;5001345;28;9293;-78
2022/09/24 00:17:24;;;;;;;;;13.33;12.33;;;;;;;;5005042;28;9299;-78
2022/09/24 00:19:52;;;;;;;;;11.00;11.00;;;;;;;;5004983;28;9265;-78
2022/09/24 00:22:19;;;;;;;;;14.33;11.33;;;;;;;;5005813;28;9325;-78
2022/09/24 00:27:31;;;;;;;;;12.33;11.00;;;;;;;;5004464;28;9414;-77
2022/09/24 00:29:58;;;;;;;;;11.00;11.00;;;;;;;;5004180;28;9490;-77
2022/09/24 00:32:27;;;;;;;;;11.67;11.67;;;;;;;;5003529;28;9409;-79
2022/09/24 00:34:54;;;;;;;;;11.00;11.00;;;;;;;;5005866;28;10041;-80
2022/09/24 00:37:22;;;;;;;;;10.67;9.00;;;;;;;;5005148;28;10193;-78
2022/09/24 00:39:49;;;;;;;;;11.67;11.67;;;;;;;;5005174;28;9390;-84
2022/09/24 00:42:19;;;;;;;;;9.00;9.00;;;;;;;;5004948;28;9419;-78
2022/09/24 00:44:53;;;;;;;;;9.67;9.67;;;;;;;;5002524;28;9282;-77
2022/09/24 00:47:29;;;;;;;;;9.00;5.00;;;;;;;;5006808;28;9411;-77
2022/09/24 00:50:04;;;;;;;;;9.33;9.33;;;;;;;;5004647;28;9514;-78
2022/09/24 00:52:32;;;;;;;;;9.33;9.33;;;;;;;;5004024;28;9332;-77
2022/09/24 00:54:59;;;;;;;;;10.33;10.33;;;;;;;;5005341;28;9329;-81
2022/09/24 00:57:27;;;;;;;;;10.00;9.00;;;;;;;;5003869;28;9430;-78
2022/09/24 00:59:55;;;;;;;;;12.00;10.00;;;;;;;;5004941;28;9306;-79
2022/09/24 01:02:23;;;;;;;;;12.33;12.33;;;;;;;;5001066;28;9283;-77
2022/09/24 01:04:53;;;;;;;;;10.33;9.00;;;;;;;;5005576;28;9345;-79
2022/09/24 01:07:20;;;;;;;;;12.67;11.33;;;;;;;;5003902;28;9377;-81
2022/09/24 01:09:48;;;;;;;;;9.67;9.67;;;;;;;;5004532;28;9186;-80
2022/09/24 01:12:21;;;;;;;;;7.33;7.33;;;;;;;;5003521;28;9132;-79
2022/09/24 01:15:03;;;;;;;;;7.67;7.67;;;;;;;;5004029;28;9189;-82
2022/09/24 01:17:39;;;;;;;;;11.33;11.33;;;;;;;;5004977;28;9222;-77
2022/09/24 01:20:26;;;;;;;;;8.00;7.67;;;;;;;;5001924;28;9217;-77
2022/09/24 01:23:24;;;;;;;;;6.67;6.67;;;;;;;;5004199;28;9980;-77
2022/09/24 01:26:04;;;;;;;;;10.00;10.00;;;;;;;;4993979;28;9025;-78
2022/09/24 01:28:38;;;;;;;;;10.00;10.00;;;;;;;;5003432;28;9089;-80
2022/09/24 01:31:12;;;;;;;;;10.67;9.67;;;;;;;;5002817;28;9179;-79
2022/09/24 01:33:39;;;;;;;;;9.67;9.33;;;;;;;;4998799;28;9103;-78
2022/09/24 01:36:08;;;;;;;;;9.00;9.00;;;;;;;;5002519;28;9192;-78
2022/09/24 01:38:39;;;;;;;;;9.00;6.33;;;;;;;;5004312;28;9202;-78
2022/09/24 01:41:09;;;;;;;;;10.00;10.00;;;;;;;;4985132;28;9231;-82
2022/09/24 01:43:38;;;;;;;;;9.00;9.00;;;;;;;;5005339;28;9095;-77
2022/09/24 01:46:07;;;;;;;;;8.00;8.00;;;;;;;;5003107;28;9206;-81
2022/09/24 01:48:37;;;;;;;;;9.00;9.00;;;;;;;;5005868;28;9198;-82
2022/09/24 01:51:10;;;;;;;;;12.00;10.33;;;;;;;;5004239;28;9016;-80
2022/09/24 01:53:42;;;;;;;;;11.00;9.67;;;;;;;;5001393;28;9109;-80
2022/09/24 01:56:14;;;;;;;;;9.00;9.00;;;;;;;;5003509;28;9178;-80
2022/09/24 01:58:47;;;;;;;;;10.00;10.00;;;;;;;;5004663;28;9118;-81
2022/09/24 02:01:20;;;;;;;;;10.33;9.00;;;;;;;;5001844;28;9051;-80
2022/09/24 02:03:53;;;;;;;;;10.33;10.33;;;;;;;;5002317;28;9152;-79
2022/09/24 02:06:25;;;;;;;;;10.33;10.33;;;;;;;;5003778;28;9029;-79
2022/09/24 02:08:52;;;;;;;;;10.33;10.33;;;;;;;;5004318;28;9882;-83
2022/09/24 02:11:23;;;;;;;;;12.00;12.00;;;;;;;;5002432;28;9205;-80
2022/09/24 02:13:54;;;;;;;;;10.00;10.00;;;;;;;;5003950;28;9194;-78
2022/09/24 02:16:27;;;;;;;;;1.00;1.00;;;;;;;;5001834;28;9124;-82
2022/09/24 02:18:57;;;;;;;;;9.00;9.00;;;;;;;;5003770;28;9203;-83
2022/09/24 02:21:24;;;;;;;;;10.67;10.67;;;;;;;;5003693;28;9033;-83
2022/09/24 02:23:55;;;;;;;;;10.00;10.00;;;;;;;;5003911;28;9086;-82
2022/09/24 02:26:22;;;;;;;;;9.00;9.00;;;;;;;;5003942;28;9089;-84
2022/09/24 02:28:51;;;;;;;;;14.00;10.33;;;;;;;;5002843;28;9130;-82
2022/09/24 02:31:20;;;;;;;;;9.67;9.67;;;;;;;;5002581;28;9012;-82
2022/09/24 02:36:35;;;;;;;;;10.33;10.00;;;;;;;;4995185;28;8952;-80
2022/09/24 02:39:03;;;;;;;;;13.33;10.33;;;;;;;;5003147;28;9121;-80
2022/09/24 02:41:31;;;;;;;;;14.67;14.67;;;;;;;;5002753;28;9060;-79
2022/09/24 02:43:58;;;;;;;;;8.67;8.67;;;;;;;;5003333;28;9124;-77
2022/09/24 02:46:26;;;;;;;;;12.67;10.67;;;;;;;;5002577;28;9064;-81
2022/09/24 02:48:54;;;;;;;;;15.67;13.00;;;;;;;;5002563;28;9114;-78
2022/09/24 02:51:21;;;;;;;;;12.67;10.33;;;;;;;;5002579;28;9194;-80
2022/09/24 02:53:49;;;;;;;;;14.00;12.33;;;;;;;;5003514;28;9111;-80
2022/09/24 02:56:16;;;;;;;;;12.33;12.33;;;;;;;;5002582;28;9106;-79
2022/09/24 02:58:43;;;;;;;;;11.00;11.00;;;;;;;;5004301;28;9307;-78
2022/09/24 03:01:10;;;;;;;;;12.00;12.00;;;;;;;;5001900;28;9049;-78
2022/09/24 03:03:37;;;;;;;;;11.00;11.00;;;;;;;;5000005;28;9244;-78
2022/09/24 03:06:07;;;;;;;;;12.67;12.67;;;;;;;;5006656;28;9152;-77
2022/09/24 03:08:34;;;;;;;;;11.00;9.33;;;;;;;;5006163;28;9385;-77
2022/09/24 03:11:01;;;;;;;;;12.00;12.00;;;;;;;;5007654;28;9280;-78
2022/09/24 03:13:28;;;;;;;;;9.00;9.00;;;;;;;;5006196;28;9314;-80
2022/09/24 03:15:56;;;;;;;;;12.67;12.67;;;;;;;;5006403;28;9106;-79
2022/09/24 03:18:23;;;;;;;;;13.00;13.00;;;;;;;;5006472;28;9197;-81
2022/09/24 03:20:57;;;;;;;;;8.33;8.33;;;;;;;;5005993;28;9409;-79
2022/09/24 03:23:27;;;;;;;;;13.00;13.00;;;;;;;;5006628;28;9228;-79
2022/09/24 03:25:54;;;;;;;;;12.00;10.33;;;;;;;;5005560;28;9245;-78
2022/09/24 03:28:22;;;;;;;;;14.67;14.67;;;;;;;;5005049;28;9238;-80
2022/09/24 03:31:00;;;;;;;;;17.00;15.33;;;;;;;;5005478;28;9215;-79
2022/09/24 03:33:28;;;;;;;;;12.67;12.33;;;;;;;;5005089;28;9266;-79
2022/09/24 03:35:57;;;;;;;;;13.33;13.33;;;;;;;;5006742;28;9101;-79
2022/09/24 03:38:26;;;;;;;;;19.00;19.00;;;;;;;;5005419;28;9198;-79
2022/09/24 03:40:53;;;;;;;;;15.33;15.33;;;;;;;;5006900;28;9394;-78
2022/09/24 03:43:20;;;;;;;;;19.00;18.75;;;;;;;;5005136;28;9425;-77
2022/09/24 03:45:48;;;;;;;;;14.33;14.33;;;;;;;;5007117;28;9429;-79
2022/09/24 03:48:15;;;;;;;;;19.33;17.67;;;;;;;;5006223;28;9528;-78
2022/09/24 03:50:42;;;;;;;;;17.67;16.67;;;;;;;;5006306;28;9550;-79
2022/09/24 03:53:10;;;;;;;;;17.00;16.33;;;;;;;;5006357;28;9382;-79
2022/09/24 03:55:43;;;;;;;;;17.00;17.00;;;;;;;;5004735;28;9367;-80
2022/09/24 03:58:11;;;;;;;;;18.00;16.67;;;;;;;;5014326;28;9499;-83
2022/09/24 04:00:38;;;;;;;;;17.33;17.00;;;;;;;;5003939;28;9255;-81
2022/09/24 04:03:06;;;;;;;;;18.33;17.33;;;;;;;;5006275;28;9437;-78
2022/09/24 04:05:33;;;;;;;;;20.33;19.00;;;;;;;;5004880;28;9343;-78
2022/09/24 04:08:01;;;;;;;;;18.00;18.00;;;;;;;;5005305;28;9356;-77
2022/09/24 04:10:29;;;;;;;;;17.00;17.00;;;;;;;;5006295;28;9336;-79
2022/09/24 04:12:58;;;;;;;;;17.33;16.33;;;;;;;;5004416;28;9199;-78
2022/09/24 04:15:25;;;;;;;;;12.33;12.33;;;;;;;;5004955;28;9340;-77
2022/09/24 04:17:54;;;;;;;;;18.00;15.67;;;;;;;;5001471;28;9354;-77
2022/09/24 04:20:22;;;;;;;;;12.33;12.33;;;;;;;;4996468;28;9287;-80
2022/09/24 04:22:50;;;;;;;;;19.67;17.67;;;;;;;;5004704;28;9273;-77
2022/09/24 04:25:17;;;;;;;;;15.67;15.67;;;;;;;;5005629;28;10122;-78
2022/09/24 04:27:45;;;;;;;;;14.67;14.33;;;;;;;;5005159;28;9254;-80
2022/09/24 04:30:15;;;;;;;;;20.33;18.67;;;;;;;;5004330;28;9342;-79
2022/09/24 04:32:42;;;;;;;;;17.33;15.00;;;;;;;;5005586;28;9205;-76
2022/09/24 04:35:10;;;;;;;;;19.00;16.00;;;;;;;;5004523;28;9307;-78
2022/09/24 04:37:38;;;;;;;;;17.00;16.67;;;;;;;;5004984;28;9222;-79
2022/09/24 04:40:11;;;;;;;;;15.33;14.00;;;;;;;;5005195;28;9236;-77
2022/09/24 04:42:38;;;;;;;;;17.00;15.67;;;;;;;;5004984;28;9209;-78
2022/09/24 04:45:07;;;;;;;;;16.67;14.67;;;;;;;;5005048;28;9267;-78
2022/09/24 04:47:36;;;;;;;;;20.00;18.00;;;;;;;;5003561;28;9284;-77
2022/09/24 04:50:05;;;;;;;;;14.67;14.67;;;;;;;;5006482;28;9417;-77
2022/09/24 04:52:32;;;;;;;;;15.33;15.33;;;;;;;;5003869;28;9325;-78
2022/09/24 04:55:00;;;;;;;;;16.00;16.00;;;;;;;;5004859;28;9290;-79
2022/09/24 04:57:34;;;;;;;;;17.33;14.67;;;;;;;;5009025;28;9358;-78
2022/09/24 05:00:03;;;;;;;;;14.67;13.67;;;;;;;;5006768;28;9379;-78
2022/09/24 05:02:30;;;;;;;;;19.33;16.67;;;;;;;;5004564;28;9218;-83
2022/09/24 05:04:59;;;;;;;;;18.33;16.67;;;;;;;;5002614;28;9281;-80
2022/09/24 05:07:27;;;;;;;;;20.33;20.33;;;;;;;;5005303;28;9426;-79
2022/09/24 05:09:54;;;;;;;;;19.33;18.33;;;;;;;;5002370;28;9329;-80
2022/09/24 05:12:21;;;;;;;;;13.00;13.00;;;;;;;;5005452;28;9408;-83
2022/09/24 05:14:48;;;;;;;;;18.50;18.50;;;;;;;;5004203;28;9271;-83
2022/09/24 05:17:16;;;;;;;;;17.00;14.00;;;;;;;;5005326;28;9754;-84
2022/09/24 05:19:43;;;;;;;;;17.33;17.00;;;;;;;;5004189;28;9600;-83
2022/09/24 05:22:11;;;;;;;;;20.00;18.00;;;;;;;;5003717;28;10167;-78
2022/09/24 05:24:39;;;;;;;;;12.33;12.33;;;;;;;;5004416;28;9672;-78
2022/09/24 05:27:08;;;;;;;;;16.00;13.33;;;;;;;;5003738;28;9514;-81
2022/09/24 05:29:36;;;;;;;;;15.50;15.00;;;;;;;;5004559;28;9371;-79
2022/09/24 05:32:05;;;;;;;;;16.50;16.50;;;;;;;;5003106;28;9427;-81
2022/09/24 05:34:32;;;;;;;;;15.33;13.00;;;;;;;;5004354;28;9578;-83
2022/09/24 05:37:00;;;;;;;;;19.25;19.25;;;;;;;;5003864;28;9471;-79
2022/09/24 05:39:29;;;;;;;;;16.00;14.00;;;;;;;;5004140;28;9587;-80
2022/09/24 05:41:57;;;;;;;;;19.00;17.50;;;;;;;;5003750;28;9477;-77
2022/09/24 05:44:24;;;;;;;;;16.75;16.75;;;;;;;;5003752;28;9564;-79
2022/09/24 05:46:52;;;;;;;;;17.00;17.00;;;;;;;;5005053;28;9664;-80
2022/09/24 05:49:20;;;;;;;;;13.00;13.00;;;;;;;;5005182;28;9518;-81
2022/09/24 05:51:49;;;;;;;;;15.00;15.00;;;;;;;;5006756;28;9438;-80
2022/09/24 05:54:16;;;;;;;;;18.00;18.00;;;;;;;;5004994;28;9486;-79
2022/09/24 05:56:45;;;;;;;;;17.75;16.75;;;;;;;;5005746;28;9672;-82
2022/09/24 05:59:13;;;;;;;;;17.33;13.33;;;;;;;;5002780;28;9639;-80
2022/09/24 06:01:40;;;;;;;;;19.75;16.75;;;;;;;;5001248;28;10739;-77
2022/09/24 06:04:07;;;;;;;;;12.75;12.75;;;;;;;;5002139;28;9650;-78
2022/09/24 06:06:34;;;;;;;;;25.25;19.75;;;;;;;;5001737;28;9577;-79
2022/09/24 06:09:02;;;;;;;;;24.00;20.25;;;;;;;;5003796;28;9856;-77
2022/09/24 06:11:33;;;;;;;;;20.50;18.75;;;;;;;;4998260;28;9774;-75
2022/09/24 06:14:04;;;;;;;;;17.75;17.75;;;;;;;;5001626;28;9643;-75
2022/09/24 06:16:33;;;;;;;;;18.50;18.00;;;;;;;;5015574;28;9564;-75
2022/09/24 06:19:00;;;;;;;;;17.75;17.75;;;;;;;;5002847;28;9591;-76
2022/09/24 06:21:28;;;;;;;;;22.50;20.00;;;;;;;;5004799;28;10419;-74
2022/09/24 06:23:55;;;;;;;;;18.75;18.75;;;;;;;;4999805;28;9655;-74
2022/09/24 06:26:24;;;;;;;;;19.25;18.25;;;;;;;;4999097;28;9579;-72
2022/09/24 06:28:52;;;;;;;;;22.25;22.00;;;;;;;;5000781;28;9573;-75
2022/09/24 06:31:21;;;;;;;;;20.50;19.75;;;;;;;;5000965;28;9733;-73
2022/09/24 06:33:48;;;;;;;;;18.50;18.50;;;;;;;;5003195;28;9626;-74
2022/09/24 06:36:15;;;;;;;;;18.33;17.00;;;;;;;;5000821;28;9583;-74
2022/09/24 06:38:44;;;;;;;;;19.50;16.75;;;;;;;;5002405;28;9352;-73
2022/09/24 06:41:11;;;;;;;;;23.00;21.00;;;;;;;;4999691;28;9615;-73
2022/09/24 06:43:38;;;;;;;;;19.50;17.75;;;;;;;;5000816;28;9452;-73
2022/09/24 06:46:06;;;;;;;;;27.00;22.00;;;;;;;;5000051;28;9606;-73
2022/09/24 06:48:37;;;;;;;;;17.67;15.33;;;;;;;;5001683;28;9436;-73
2022/09/24 06:51:04;;;;;;;;;20.00;18.00;;;;;;;;5002827;28;9259;-74
2022/09/24 06:53:32;;;;;;;;;20.33;20.33;;;;;;;;5002204;28;9347;-73
2022/09/24 06:55:59;;;;;;;;;24.33;22.67;;;;;;;;5002517;28;9397;-74
2022/09/24 06:58:27;;;;;;;;;26.33;22.33;;;;;;;;4999780;28;9470;-74
2022/09/24 07:00:57;;;;;;;;;19.67;19.67;;;;;;;;5001245;28;9281;-74
2022/09/24 07:03:25;;;;;;;;;19.00;18.33;;;;;;;;4999202;28;9360;-74
2022/09/24 07:05:54;;;;;;;;;19.33;19.33;;;;;;;;4998910;28;9265;-74
2022/09/24 07:08:21;;;;;;;;;21.00;19.00;;;;;;;;4999425;28;9025;-74
2022/09/24 07:10:51;;;;;;;;;14.00;14.00;;;;;;;;4999678;28;9260;-75
2022/09/24 07:13:20;;;;;;;;;21.33;21.33;;;;;;;;4999786;28;9095;-76
2022/09/24 07:15:48;;;;;;;;;20.33;19.67;;;;;;;;4999973;28;9115;-75
2022/09/24 07:18:16;;;;;;;;;22.33;22.33;;;;;;;;5000495;28;8999;-74
2022/09/24 07:20:43;;;;;;;;;20.33;20.33;;;;;;;;4998386;28;9239;-75
2022/09/24 07:23:13;;;;;;;;;19.50;19.50;;;;;;;;5000919;28;8952;-74
2022/09/24 07:25:40;;;;;;;;;20.25;20.25;;;;;;;;4998818;28;8880;-75
2022/09/24 07:28:09;;;;;;;;;21.50;21.00;;;;;;;;5001187;28;9745;-74
2022/09/24 07:30:37;;;;;;;;;20.25;17.50;;;;;;;;5000624;28;8803;-75
2022/09/24 07:33:06;;;;;;;;;20.75;17.50;;;;;;;;4999636;28;8899;-75
2022/09/24 07:35:34;;;;;;;;;20.25;20.25;;;;;;;;5000755;28;8900;-75
2022/09/24 07:38:02;;;;;;;;;20.75;19.00;;;;;;;;4998773;28;9689;-75
2022/09/24 07:40:31;;;;;;;;;19.75;19.75;;;;;;;;4999845;28;8891;-76
2022/09/24 07:42:59;;;;;;;;;18.00;18.00;;;;;;;;4999096;28;8880;-74
2022/09/24 07:45:28;;;;;;;;;20.25;19.00;;;;;;;;5000757;28;8857;-74
2022/09/24 07:47:59;;;;;;;;;16.25;16.25;;;;;;;;4999729;28;8836;-74
2022/09/24 07:50:28;;;;;;;;;20.75;18.75;;;;;;;;4999213;28;8876;-74
2022/09/24 07:52:55;;;;;;;;;19.50;17.00;;;;;;;;5001514;28;8856;-74
2022/09/24 07:55:23;;;;;;;;;17.50;17.50;;;;;;;;5004277;28;8876;-76
2022/09/24 07:57:53;;;;;;;;;16.50;16.50;;;;;;;;5004579;28;8898;-75
2022/09/24 08:00:21;;;;;;;;;16.25;16.25;;;;;;;;5003883;28;8884;-75
2022/09/24 08:02:50;;;;;;;;;22.00;19.00;;;;;;;;5004688;28;8906;-76
2022/09/24 08:05:17;;;;;;;;;17.50;17.50;;;;;;;;5004269;28;8876;-76
2022/09/24 08:07:52;;;;;;;;;20.00;20.00;;;;;;;;5005084;28;8872;-75
2022/09/24 08:10:30;;;;;;;;;20.25;20.00;;;;;;;;5005589;28;9671;-75
2022/09/24 08:13:02;;;;;;;;;23.00;23.00;;;;;;;;5003142;28;8892;-75
2022/09/24 08:15:30;;;;;;;;;16.25;16.00;;;;;;;;5004042;28;8880;-79
2022/09/24 08:18:02;;;;;;;;;17.75;17.75;;;;;;;;5003040;28;8873;-74
2022/09/24 08:20:29;;;;;;;;;17.50;17.25;;;;;;;;4988150;28;8880;-75
2022/09/24 08:23:02;;;;;;;;;17.75;16.75;;;;;;;;5004147;28;8872;-75
2022/09/24 08:25:30;;;;;;;;;24.25;24.00;;;;;;;;4999335;28;8954;-75
2022/09/24 08:28:02;;;;;;;;;25.25;23.00;;;;;;;;5004629;28;8856;-75
2022/09/24 08:30:30;;;;;;;;;21.25;16.00;;;;;;;;5003649;28;8793;-74
2022/09/24 08:32:57;;;;;;;;;20.25;19.00;;;;;;;;5002898;28;8903;-74
2022/09/24 08:35:25;;;;;;;;;22.00;22.00;;;;;;;;5001033;28;8907;-75
2022/09/24 08:37:54;;;;;;;;;23.75;21.00;;;;;;;;5004252;28;8995;-76
2022/09/24 08:40:23;;;;;;;;;18.25;16.50;;;;;;;;5004521;28;8988;-76
2022/09/24 08:42:55;;;;;;;;;17.50;17.50;;;;;;;;5003938;28;8864;-74
2022/09/24 08:48:14;;;;;;;;;17.00;17.00;;;;;;;;5001187;28;8825;-78
2022/09/24 08:50:50;;;;;;;;;20.50;18.75;;;;;;;;5005344;28;8882;-80
2022/09/24 08:53:23;;;;;;;;;17.75;16.75;;;;;;;;4993027;28;8888;-76
2022/09/24 08:55:53;;;;;;;;;21.25;19.50;;;;;;;;5001990;28;8999;-78
2022/09/24 08:58:39;;;;;;;;;20.50;20.00;;;;;;;;5004239;28;8860;-76
2022/09/24 09:01:21;;;;;;;;;17.00;17.00;;;;;;;;5000897;28;8823;-76
2022/09/24 09:03:53;;;;;;;;;25.75;25.75;;;;;;;;5003465;28;8872;-76
2022/09/24 09:06:41;;;;;;;;;23.00;23.00;;;;;;;;5002006;28;9022;-75
2022/09/24 09:09:13;;;;;;;;;17.50;17.50;;;;;;;;4990807;28;9682;-77
2022/09/24 09:11:42;;;;;;;;;15.50;15.50;;;;;;;;5001229;28;9669;-76
2022/09/24 09:14:16;;;;;;;;;14.50;14.50;;;;;;;;5000371;28;8880;-77
2022/09/24 09:16:49;;;;;;;;;47.50;37.00;;;;;;;;5001893;28;8864;-76
2022/09/24 09:19:17;;;;;;;;;18.00;14.00;;;;;;;;4996479;28;9015;-78
2022/09/24 09:21:51;;;;;;;;;43.75;35.50;;;;;;;;5003013;28;8868;-84
2022/09/24 09:24:22;;;;;;;;;16.50;15.50;;;;;;;;5000351;28;8987;-76
2022/09/24 09:26:53;;;;;;;;;18.00;15.50;;;;;;;;5000971;28;8899;-82
2022/09/24 09:29:22;;;;;;;;;14.75;14.25;;;;;;;;5001410;28;9626;-73
2022/09/24 09:31:58;;;;;;;;;17.00;14.75;;;;;;;;5000878;28;8870;-78
2022/09/24 09:34:36;;;;;;;;;19.75;19.75;;;;;;;;5002686;28;8906;-76
2022/09/24 09:37:14;;;;;;;;;7.50;7.50;;;;;;;;5003607;28;8880;-74
2022/09/24 09:39:48;;;;;;;;;17.00;15.75;;;;;;;;5001923;28;8876;-74
2022/09/24 09:42:27;;;;;;;;;15.50;13.75;;;;;;;;5004064;28;8864;-74
2022/09/24 09:44:55;;;;;;;;;13.25;12.75;;;;;;;;5000849;28;8954;-76
2022/09/24 09:47:34;;;;;;;;;17.75;13.00;;;;;;;;5004150;28;8952;-75
2022/09/24 09:50:06;;;;;;;;;16.00;16.00;;;;;;;;5000858;28;8884;-74
2022/09/24 09:52:37;;;;;;;;;13.25;13.25;;;;;;;;5002097;28;8908;-80
2022/09/24 09:55:05;;;;;;;;;14.25;14.00;;;;;;;;5004159;28;8836;-79
2022/09/24 09:57:35;;;;;;;;;14.50;14.50;;;;;;;;5000703;28;9759;-78
2022/09/24 10:00:04;;;;;;;;;16.00;16.00;;;;;;;;5003974;28;9092;-74
2022/09/24 10:02:43;;;;;;;;;21.00;21.00;;;;;;;;5000906;28;8837;-75
2022/09/24 10:05:20;;;;;;;;;14.75;14.75;;;;;;;;5003314;28;8876;-78
2022/09/24 10:07:47;;;;;;;;;19.50;18.00;;;;;;;;4998986;28;8880;-77
2022/09/24 10:10:19;;;;;;;;;8.60;8.60;;;;;;;;5002508;28;9018;-74
2022/09/24 10:12:46;;;;;;;;;11.40;11.40;;;;;;;;5000671;28;8903;-78
2022/09/24 10:15:19;;;;;;;;;21.25;21.25;;;;;;;;5001733;28;8888;-74
2022/09/24 10:17:50;;;;;;;;;11.60;10.00;;;;;;;;5003518;28;8860;-76
2022/09/24 10:20:21;;;;;;;;;20.50;17.00;;;;;;;;5003226;28;8876;-74
2022/09/24 10:22:50;;;;;;;;;13.00;13.00;;;;;;;;5002439;28;8891;-77
2022/09/24 10:25:23;;;;;;;;;12.20;12.20;;;;;;;;5004128;28;8887;-76
2022/09/24 10:27:52;;;;;;;;;12.40;12.40;;;;;;;;5001723;28;9766;-75
2022/09/24 10:30:34;;;;;;;;;30.00;29.00;;;;;;;;5000926;28;8864;-76
2022/09/24 10:33:04;;;;;;;;;15.20;13.60;;;;;;;;5000648;28;9100;-72
2022/09/24 10:35:34;;;;;;;;;12.40;11.80;;;;;;;;5003103;28;8868;-76
2022/09/24 10:38:13;;;;;;;;;13.80;11.80;;;;;;;;5002561;28;8848;-77
2022/09/24 10:40:41;;;;;;;;;26.40;25.00;;;;;;;;5002005;28;8876;-74
2022/09/24 10:43:16;;;;;;;;;17.40;16.20;;;;;;;;5003570;28;8906;-73
2022/09/24 10:46:04;;;;;;;;;12.00;12.00;;;;;;;;5001715;28;9786;-74
2022/09/24 10:48:39;;;;;;;;;12.20;12.20;;;;;;;;5001486;28;8884;-77
2022/09/24 10:51:15;;;;;;;;;13.60;13.60;;;;;;;;5001900;28;8880;-74
2022/09/24 10:53:52;;;;;;;;;13.60;13.60;;;;;;;;5000565;28;8884;-76
2022/09/24 10:56:26;;;;;;;;;15.20;11.40;;;;;;;;5001801;28;8848;-77
2022/09/24 10:59:35;;;;;;;;;37.50;29.25;;;;;;;;4999275;28;8999;-74
2022/09/24 11:02:34;;;;;;;;;15.80;14.00;;;;;;;;4996905;28;8833;-77
2022/09/24 11:05:07;;;;;;;;;15.80;12.20;;;;;;;;4998875;28;8860;-76
2022/09/24 11:07:55;;;;;;;;;10.40;10.40;;;;;;;;4999966;28;8923;-75
2022/09/24 11:10:32;;;;;;;;;11.80;11.80;;;;;;;;5003607;28;9011;-75
2022/09/24 11:13:14;;;;;;;;;16.60;16.00;;;;;;;;5002538;28;8860;-75
2022/09/24 11:16:15;;;;;;;;;17.40;17.00;;;;;;;;4989658;28;8890;-73
2022/09/24 11:18:50;;;;;;;;;16.40;13.80;;;;;;;;4997033;28;8906;-73
2022/09/24 11:21:29;;;;;;;;;13.80;12.00;;;;;;;;5000457;28;8884;-73
2022/09/24 11:24:16;;;;;;;;;8.00;6.20;;;;;;;;5000286;28;8968;-74
2022/09/24 11:26:54;;;;;;;;;11.60;11.60;;;;;;;;5006933;28;8889;-75
2022/09/24 11:29:37;;;;;;;;;11.60;11.60;;;;;;;;5002597;28;8879;-75
2022/09/24 11:32:12;;;;;;;;;12.00;12.00;;;;;;;;5004883;28;8927;-75
2022/09/24 11:34:55;;;;;;;;;11.20;11.20;;;;;;;;5003498;28;8856;-75
2022/09/24 11:37:37;;;;;;;;;12.60;10.60;;;;;;;;5004003;28;8894;-75
2022/09/24 11:40:22;;;;;;;;;11.80;11.80;;;;;;;;5004360;28;9654;-74
2022/09/24 11:43:01;;;;;;;;;11.20;11.20;;;;;;;;5003459;28;8938;-75
2022/09/24 11:45:42;;;;;;;;;12.80;12.80;;;;;;;;5002262;28;9589;-75
2022/09/24 11:48:28;;;;;;;;;11.40;9.60;;;;;;;;4997142;28;8895;-76
2022/09/24 11:51:03;;;;;;;;;11.60;11.60;;;;;;;;5003075;28;8887;-75
2022/09/24 11:53:38;;;;;;;;;11.20;10.20;;;;;;;;5001168;28;8883;-75
2022/09/24 11:56:11;;;;;;;;;11.60;10.80;;;;;;;;5000263;28;8949;-74
2022/09/24 11:58:42;;;;;;;;;9.00;9.00;;;;;;;;5004043;28;8879;-74
2022/09/24 12:01:13;;;;;;;;;8.00;8.00;;;;;;;;5003744;28;8809;-73
2022/09/24 12:03:44;;;;;;;;;11.20;10.80;;;;;;;;5002860;28;9010;-73
2022/09/24 12:06:15;;;;;;;;;9.80;9.80;;;;;;;;5004382;28;8876;-73
2022/09/24 12:08:49;;;;;;;;;10.20;10.20;;;;;;;;5001995;28;8861;-74
2022/09/24 12:11:21;;;;;;;;;12.80;10.80;;;;;;;;5004048;28;9623;-74
2022/09/24 12:13:52;;;;;;;;;9.40;9.40;;;;;;;;5003918;28;8894;-74
2022/09/24 12:16:23;;;;;;;;;10.80;10.80;;;;;;;;5000017;28;8875;-74
2022/09/24 12:18:55;;;;;;;;;8.80;7.40;;;;;;;;5002913;28;8869;-74
2022/09/24 12:21:26;;;;;;;;;7.60;7.60;;;;;;;;5001507;28;8999;-74
2022/09/24 12:24:01;;;;;;;;;8.20;6.60;;;;;;;;4995471;28;8879;-74
2022/09/24 12:26:30;;;;;;;;;10.80;9.80;;;;;;;;5001617;28;8887;-73
2022/09/24 12:34:49;;;;;;;;;7.60;7.60;;;;;;;;5002615;28;8848;-74
2022/09/24 12:37:21;;;;;;;;;7.20;7.20;;;;;;;;5000119;28;8942;-74
2022/09/24 12:39:54;;;;;;;;;7.40;7.40;;;;;;;;5004317;28;8887;-75
2022/09/24 12:42:24;;;;;;;;;9.00;7.40;;;;;;;;5003092;28;8889;-74
2022/09/24 12:44:54;;;;;;;;;7.80;7.80;;;;;;;;5003196;28;8955;-74
2022/09/24 12:47:24;;;;;;;;;7.00;7.00;;;;;;;;5002517;28;8872;-74
2022/09/24 12:49:54;;;;;;;;;6.00;5.00;;;;;;;;5004358;28;8884;-74
2022/09/24 12:52:26;;;;;;;;;8.60;7.60;;;;;;;;5001161;28;8849;-80
2022/09/24 12:55:18;;;;;;;;;10.80;7.80;;;;;;;;5003408;28;9707;-75
2022/09/24 12:57:52;;;;;;;;;11.80;8.00;;;;;;;;4998635;28;8873;-76
2022/09/24 13:00:38;;;;;;;;;8.60;6.80;;;;;;;;5001888;28;8890;-77
2022/09/24 13:03:07;;;;;;;;;10.00;9.00;;;;;;;;5003287;28;8884;-77
2022/09/24 13:05:46;;;;;;;;;10.80;9.80;;;;;;;;5001597;28;8883;-76
2022/09/24 13:08:40;;;;;;;;;8.20;8.20;;;;;;;;5002946;28;8903;-72
2022/09/24 13:11:28;;;;;;;;;8.20;8.20;;;;;;;;4993015;28;8894;-74
2022/09/24 13:14:08;;;;;;;;;7.20;7.20;;;;;;;;5000110;28;8963;-78
2022/09/24 13:16:39;;;;;;;;;9.80;9.80;;;;;;;;5000667;28;8894;-73
2022/09/24 13:19:24;;;;;;;;;9.40;9.40;;;;;;;;5003290;28;8868;-76
2022/09/24 13:21:54;;;;;;;;;10.40;9.00;;;;;;;;5003745;28;8884;-76
2022/09/24 13:24:28;;;;;;;;;11.00;11.00;;;;;;;;5003251;28;8907;-84
2022/09/24 13:27:09;;;;;;;;;8.00;7.80;;;;;;;;5002275;28;8869;-82
2022/09/24 13:29:39;;;;;;;;;9.00;9.00;;;;;;;;5003317;28;9654;-75
2022/09/24 13:32:10;;;;;;;;;7.40;7.00;;;;;;;;5002316;28;8781;-75
2022/09/24 13:34:38;;;;;;;;;8.00;8.00;;;;;;;;4999987;28;8900;-75
2022/09/24 13:37:15;;;;;;;;;9.60;9.60;;;;;;;;5005323;28;8876;-75
2022/09/24 13:39:45;;;;;;;;;9.60;8.40;;;;;;;;5002331;28;8872;-74
2022/09/24 13:42:24;;;;;;;;;9.00;9.00;;;;;;;;5003285;28;9626;-75
2022/09/24 13:44:53;;;;;;;;;11.00;9.00;;;;;;;;5004084;28;8900;-75
2022/09/24 13:47:27;;;;;;;;;8.00;8.00;;;;;;;;5003630;28;8876;-74
2022/09/24 13:50:05;;;;;;;;;8.00;8.00;;;;;;;;5003850;28;8883;-75
2022/09/24 13:52:36;;;;;;;;;9.60;9.60;;;;;;;;5002438;28;8876;-75
2022/09/24 13:55:11;;;;;;;;;9.60;8.20;;;;;;;;5003389;28;9721;-75
2022/09/24 13:57:45;;;;;;;;;6.20;6.20;;;;;;;;5002979;28;8887;-74
2022/09/24 14:00:18;;;;;;;;;5.40;4.60;;;;;;;;5003616;28;8930;-75
2022/09/24 14:03:00;;;;;;;;;6.40;6.40;;;;;;;;5004075;28;8870;-75
2022/09/24 14:05:29;;;;;;;;;6.80;6.80;;;;;;;;5003055;28;8887;-75
2022/09/24 14:07:59;;;;;;;;;7.00;7.00;;;;;;;;5003279;28;8988;-75
2022/09/24 14:10:27;;;;;;;;;4.40;4.40;;;;;;;;5003636;28;9010;-74
2022/09/24 14:13:20;;;;;;;;;7.00;6.00;;;;;;;;5004737;28;9704;-75
2022/09/24 14:15:55;;;;;;;;;6.60;5.00;;;;;;;;5002097;28;8848;-74
2022/09/24 14:18:23;;;;;;;;;7.00;6.00;;;;;;;;5002359;28;9823;-75
2022/09/24 14:20:55;;;;;;;;;4.00;4.00;;;;;;;;5004174;28;8894;-75
2022/09/24 14:23:26;;;;;;;;;4.20;4.20;;;;;;;;5001890;28;8868;-75
2022/09/24 14:25:55;;;;;;;;;5.00;4.00;;;;;;;;5004143;28;8890;-75
2022/09/24 14:28:24;;;;;;;;;4.60;4.40;;;;;;;;5002461;28;8886;-75
2022/09/24 14:30:53;;;;;;;;;6.00;4.00;;;;;;;;5002836;28;8899;-75
2022/09/24 14:33:24;;;;;;;;;5.00;5.00;;;;;;;;5004192;28;8868;-75
2022/09/24 14:35:53;;;;;;;;;6.00;4.20;;;;;;;;5002226;28;8895;-74
2022/09/24 14:38:24;;;;;;;;;6.00;4.60;;;;;;;;5003972;28;9658;-75
2022/09/24 14:40:54;;;;;;;;;5.00;5.00;;;;;;;;5002313;28;8884;-74
2022/09/24 14:43:30;;;;;;;;;5.60;5.60;;;;;;;;5003936;28;8876;-75
2022/09/24 14:46:02;;;;;;;;;4.00;4.00;;;;;;;;5003066;28;8883;-75
2022/09/24 14:48:33;;;;;;;;;3.80;3.60;;;;;;;;5002491;28;8950;-74
2022/09/24 14:51:01;;;;;;;;;2.00;2.00;;;;;;;;5003781;28;8995;-75
2022/09/24 14:53:31;;;;;;;;;5.00;5.00;;;;;;;;4996473;28;8876;-75
2022/09/24 14:55:59;;;;;;;;;5.40;5.00;;;;;;;;5003796;28;8884;-75
2022/09/24 14:58:35;;;;;;;;;4.20;4.20;;;;;;;;5001667;28;8906;-76
2022/09/24 15:01:05;;;;;;;;;5.60;5.60;;;;;;;;5004454;28;8856;-75
2022/09/24 15:03:39;;;;;;;;;5.00;5.00;;;;;;;;5007253;28;8864;-75
2022/09/24 15:06:16;;;;;;;;;5.00;5.00;;;;;;;;5006416;28;9665;-74
2022/09/24 15:08:43;;;;;;;;;8.00;6.60;;;;;;;;5007542;28;8876;-75
2022/09/24 15:11:17;;;;;;;;;5.00;5.00;;;;;;;;5006547;28;8884;-74
2022/09/24 15:13:46;;;;;;;;;9.00;7.80;;;;;;;;5011165;28;8887;-75